PWSweather.com
Personal Weather Stations
Station Observations
ISYDDANM23
Felsted, AabenraaDK 6200

FelstedAabenraaDK 6200

Lat: 54.977066, Lon: 9.507192

Elevation: 135

Station Type: Davis Vantage Pro 2 Plus 24H

http://www.valkaer.dk

High Low Average
Temperature 48.5°F9.2°C 46.2°F7.9°C 47.2°F8.4°C
Dew Point 45.5°F7.5°C 41.6°F5.3°C 44.2°F6.8°C
Winds 18.4 mph 29.6 kmh 4.6 mph 7.4 kmh 12.0 mph W19.3 kmh W
Wind Gusts 26.5 mph42.6 kmh 8.1 mph13.0 kmh 16.0 mph25.7 kmh
Humidity 93% 82% 89%
Pressure 30.01 in1016.3 mb 29.75 in1007.5 mb -
Precipitation 0.00 in0.0 mm - -
Hour Temp Dew Point Humidity Winds Wind Gusts Pressure Precip Precip Rate Daily Precip Total
12:00 AM 46.5°F8.1°C 44.0°F6.7°C 91% 11.5 mph W18.5 kmh W 13.8 mph22.2 kmh 30.03 in1016.9 mb - 0.00 in0.0 mm 0.00 in0.0 mm
12:10 AM 46.5°F8.1°C 44.0°F6.7°C 91% 6.9 mph W11.1 kmh W 10.4 mph16.7 kmh 30.03 in1016.9 mb - 0.00 in0.0 mm 0.00 in0.0 mm
12:15 AM 46.6°F8.1°C 44.1°F6.7°C 91% 6.9 mph W11.1 kmh W 11.5 mph18.5 kmh 30.03 in1016.9 mb - 0.00 in0.0 mm 0.00 in0.0 mm
12:20 AM 46.6°F8.1°C 44.1°F6.7°C 91% 9.2 mph W14.8 kmh W 11.5 mph18.5 kmh 30.03 in1016.9 mb - 0.00 in0.0 mm 0.00 in0.0 mm
12:25 AM 46.6°F8.1°C 44.1°F6.7°C 91% 9.2 mph W14.8 kmh W 13.8 mph22.2 kmh 30.03 in1016.9 mb - 0.00 in0.0 mm 0.00 in0.0 mm
12:30 AM 46.6°F8.1°C 44.1°F6.7°C 91% 9.2 mph WNW14.8 kmh WNW 12.7 mph20.4 kmh 30.02 in1016.6 mb - 0.00 in0.0 mm 0.00 in0.0 mm
12:35 AM 46.6°F8.1°C 44.1°F6.7°C 91% 6.9 mph NW11.1 kmh NW 16.1 mph25.9 kmh 30.02 in1016.6 mb - 0.00 in0.0 mm 0.00 in0.0 mm
12:40 AM 46.5°F8.1°C 44.0°F6.7°C 91% 8.1 mph W13.0 kmh W 9.2 mph14.8 kmh 30.02 in1016.6 mb - 0.00 in0.0 mm 0.00 in0.0 mm
12:45 AM 46.5°F8.1°C 44.0°F6.7°C 91% 10.4 mph WNW16.7 kmh WNW 13.8 mph22.2 kmh 30.02 in1016.6 mb - 0.00 in0.0 mm 0.00 in0.0 mm
12:50 AM 46.4°F8.0°C 43.9°F6.6°C 91% 6.9 mph WSW11.1 kmh WSW 11.5 mph18.5 kmh 30.02 in1016.6 mb - 0.00 in0.0 mm 0.00 in0.0 mm
12:55 AM 46.4°F8.0°C 43.9°F6.6°C 91% 9.2 mph W14.8 kmh W 10.4 mph16.7 kmh 30.01 in1016.3 mb - 0.00 in0.0 mm 0.00 in0.0 mm
01:00 AM 46.4°F8.0°C 43.9°F6.6°C 91% 9.2 mph WNW14.8 kmh WNW 13.8 mph22.2 kmh 30.01 in1016.3 mb - 0.00 in0.0 mm 0.00 in0.0 mm
01:10 AM 46.4°F8.0°C 43.9°F6.6°C 91% 10.4 mph W16.7 kmh W 12.7 mph20.4 kmh 30.01 in1016.3 mb - 0.00 in0.0 mm 0.00 in0.0 mm
01:15 AM 46.4°F8.0°C 43.9°F6.6°C 91% 8.1 mph W13.0 kmh W 11.5 mph18.5 kmh 30.01 in1016.3 mb - 0.00 in0.0 mm 0.00 in0.0 mm
01:20 AM 46.5°F8.1°C 44.0°F6.7°C 91% 9.2 mph WNW14.8 kmh WNW 11.5 mph18.5 kmh 30.01 in1016.3 mb - 0.00 in0.0 mm 0.00 in0.0 mm
01:25 AM 46.3°F7.9°C 43.8°F6.6°C 91% 10.4 mph W16.7 kmh W 12.7 mph20.4 kmh 30.00 in1015.9 mb - 0.00 in0.0 mm 0.00 in0.0 mm
01:30 AM 46.2°F7.9°C 43.7°F6.5°C 91% 8.1 mph W13.0 kmh W 11.5 mph18.5 kmh 30.00 in1015.9 mb - 0.00 in0.0 mm 0.00 in0.0 mm
01:35 AM 46.3°F7.9°C 43.8°F6.6°C 91% 10.4 mph W16.7 kmh W 13.8 mph22.2 kmh 30.00 in1015.9 mb - 0.00 in0.0 mm 0.00 in0.0 mm
01:40 AM 46.4°F8.0°C 43.9°F6.6°C 91% 9.2 mph W14.8 kmh W 11.5 mph18.5 kmh 30.00 in1015.9 mb - 0.00 in0.0 mm 0.00 in0.0 mm
01:45 AM 46.5°F8.1°C 44.0°F6.7°C 91% 9.2 mph W14.8 kmh W 15.0 mph24.1 kmh 30.00 in1015.9 mb - 0.00 in0.0 mm 0.00 in0.0 mm
01:50 AM 46.6°F8.1°C 44.1°F6.7°C 91% 6.9 mph W11.1 kmh W 8.1 mph13.0 kmh 30.00 in1015.9 mb - 0.00 in0.0 mm 0.00 in0.0 mm
01:55 AM 46.7°F8.2°C 44.2°F6.8°C 91% 9.2 mph W14.8 kmh W 11.5 mph18.5 kmh 30.00 in1015.9 mb - 0.00 in0.0 mm 0.00 in0.0 mm
02:00 AM 46.8°F8.2°C 44.3°F6.8°C 91% 4.6 mph W7.4 kmh W 8.1 mph13.0 kmh 29.99 in1015.6 mb - 0.00 in0.0 mm 0.00 in0.0 mm
02:10 AM 47.0°F8.3°C 44.5°F6.9°C 91% 9.2 mph W14.8 kmh W 13.8 mph22.2 kmh 29.99 in1015.6 mb - 0.00 in0.0 mm 0.00 in0.0 mm
02:15 AM 46.9°F8.3°C 44.4°F6.9°C 91% 10.4 mph W16.7 kmh W 15.0 mph24.1 kmh 29.99 in1015.6 mb - 0.00 in0.0 mm 0.00 in0.0 mm
02:20 AM 47.0°F8.3°C 44.5°F6.9°C 91% 11.5 mph W18.5 kmh W 15.0 mph24.1 kmh 29.99 in1015.6 mb - 0.00 in0.0 mm 0.00 in0.0 mm
02:25 AM 47.0°F8.3°C 44.5°F6.9°C 91% 10.4 mph WSW16.7 kmh WSW 11.5 mph18.5 kmh 29.99 in1015.6 mb - 0.00 in0.0 mm 0.00 in0.0 mm
02:30 AM 47.0°F8.3°C 44.5°F6.9°C 91% 9.2 mph W14.8 kmh W 11.5 mph18.5 kmh 29.98 in1015.2 mb - 0.00 in0.0 mm 0.00 in0.0 mm
02:35 AM 47.1°F8.4°C 44.6°F7.0°C 91% 11.5 mph WNW18.5 kmh WNW 15.0 mph24.1 kmh 29.98 in1015.2 mb - 0.00 in0.0 mm 0.00 in0.0 mm
02:40 AM 47.1°F8.4°C 44.6°F7.0°C 91% 10.4 mph W16.7 kmh W 11.5 mph18.5 kmh 29.98 in1015.2 mb - 0.00 in0.0 mm 0.00 in0.0 mm
02:45 AM 47.1°F8.4°C 44.6°F7.0°C 91% 5.8 mph WSW9.3 kmh WSW 15.0 mph24.1 kmh 29.98 in1015.2 mb - 0.00 in0.0 mm 0.00 in0.0 mm
02:50 AM 47.1°F8.4°C 44.6°F7.0°C 91% 9.2 mph W14.8 kmh W 10.4 mph16.7 kmh 29.98 in1015.2 mb - 0.00 in0.0 mm 0.00 in0.0 mm
02:55 AM 47.1°F8.4°C 44.6°F7.0°C 91% 8.1 mph WNW13.0 kmh WNW 10.4 mph16.7 kmh 29.98 in1015.2 mb - 0.00 in0.0 mm 0.00 in0.0 mm
03:00 AM 47.1°F8.4°C 44.6°F7.0°C 91% 6.9 mph W11.1 kmh W 11.5 mph18.5 kmh 29.98 in1015.2 mb - 0.00 in0.0 mm 0.00 in0.0 mm
03:10 AM 46.9°F8.3°C 44.1°F6.7°C 90% 10.4 mph W16.7 kmh W 15.0 mph24.1 kmh 29.98 in1015.2 mb - 0.00 in0.0 mm 0.00 in0.0 mm
03:15 AM 46.8°F8.2°C 44.3°F6.8°C 91% 5.8 mph W9.3 kmh W 11.5 mph18.5 kmh 29.98 in1015.2 mb - 0.00 in0.0 mm 0.00 in0.0 mm
03:20 AM 46.8°F8.2°C 44.3°F6.8°C 91% 10.4 mph WNW16.7 kmh WNW 15.0 mph24.1 kmh 29.98 in1015.2 mb - 0.00 in0.0 mm 0.00 in0.0 mm
03:25 AM 46.7°F8.2°C 44.2°F6.8°C 91% 10.4 mph W16.7 kmh W 15.0 mph24.1 kmh 29.98 in1015.2 mb - 0.00 in0.0 mm 0.00 in0.0 mm
03:30 AM 46.6°F8.1°C 43.8°F6.6°C 90% 12.7 mph WNW20.4 kmh WNW 17.3 mph27.8 kmh 29.97 in1014.9 mb - 0.00 in0.0 mm 0.00 in0.0 mm
03:35 AM 46.6°F8.1°C 44.1°F6.7°C 91% 10.4 mph W16.7 kmh W 15.0 mph24.1 kmh 29.98 in1015.2 mb - 0.00 in0.0 mm 0.00 in0.0 mm
03:40 AM 46.6°F8.1°C 44.1°F6.7°C 91% 8.1 mph W13.0 kmh W 10.4 mph16.7 kmh 29.97 in1014.9 mb - 0.00 in0.0 mm 0.00 in0.0 mm
03:45 AM 46.6°F8.1°C 44.1°F6.7°C 91% 9.2 mph WSW14.8 kmh WSW 16.1 mph25.9 kmh 29.97 in1014.9 mb - 0.00 in0.0 mm 0.00 in0.0 mm
03:50 AM 46.7°F8.2°C 44.2°F6.8°C 91% 6.9 mph W11.1 kmh W 11.5 mph18.5 kmh 29.97 in1014.9 mb - 0.00 in0.0 mm 0.00 in0.0 mm
03:55 AM 46.7°F8.2°C 44.5°F6.9°C 92% 8.1 mph W13.0 kmh W 13.8 mph22.2 kmh 29.97 in1014.9 mb - 0.00 in0.0 mm 0.00 in0.0 mm
04:00 AM 46.8°F8.2°C 44.6°F7.0°C 92% 9.2 mph W14.8 kmh W 13.8 mph22.2 kmh 29.97 in1014.9 mb - 0.00 in0.0 mm 0.00 in0.0 mm
04:10 AM 46.8°F8.2°C 44.6°F7.0°C 92% 11.5 mph W18.5 kmh W 12.7 mph20.4 kmh 29.96 in1014.6 mb - 0.00 in0.0 mm 0.00 in0.0 mm
04:15 AM 46.9°F8.3°C 44.7°F7.1°C 92% 12.7 mph W20.4 kmh W 19.6 mph31.5 kmh 29.96 in1014.6 mb - 0.00 in0.0 mm 0.00 in0.0 mm
04:20 AM 46.9°F8.3°C 44.7°F7.1°C 92% 11.5 mph W18.5 kmh W 15.0 mph24.1 kmh 29.96 in1014.6 mb - 0.00 in0.0 mm 0.00 in0.0 mm
04:25 AM 47.0°F8.3°C 44.8°F7.1°C 92% 10.4 mph WNW16.7 kmh WNW 13.8 mph22.2 kmh 29.96 in1014.6 mb - 0.00 in0.0 mm 0.00 in0.0 mm
04:30 AM 47.1°F8.4°C 44.9°F7.2°C 92% 10.4 mph WNW16.7 kmh WNW 18.4 mph29.6 kmh 29.96 in1014.6 mb - 0.00 in0.0 mm 0.00 in0.0 mm
04:35 AM 47.1°F8.4°C 44.9°F7.2°C 92% 9.2 mph WNW14.8 kmh WNW 11.5 mph18.5 kmh 29.96 in1014.6 mb - 0.00 in0.0 mm 0.00 in0.0 mm
04:40 AM 47.1°F8.4°C 44.9°F7.2°C 92% 9.2 mph W14.8 kmh W 11.5 mph18.5 kmh 29.95 in1014.2 mb - 0.00 in0.0 mm 0.00 in0.0 mm
04:45 AM 47.0°F8.3°C 44.8°F7.1°C 92% 9.2 mph W14.8 kmh W 11.5 mph18.5 kmh 29.95 in1014.2 mb - 0.00 in0.0 mm 0.00 in0.0 mm
04:50 AM 47.0°F8.3°C 44.8°F7.1°C 92% 10.4 mph W16.7 kmh W 12.7 mph20.4 kmh 29.95 in1014.2 mb - 0.00 in0.0 mm 0.00 in0.0 mm
04:55 AM 47.0°F8.3°C 44.8°F7.1°C 92% 6.9 mph W11.1 kmh W 11.5 mph18.5 kmh 29.95 in1014.2 mb - 0.00 in0.0 mm 0.00 in0.0 mm
05:00 AM 47.0°F8.3°C 44.8°F7.1°C 92% 10.4 mph W16.7 kmh W 12.7 mph20.4 kmh 29.95 in1014.2 mb - 0.00 in0.0 mm 0.00 in0.0 mm
05:10 AM 47.1°F8.4°C 45.2°F7.3°C 93% 9.2 mph W14.8 kmh W 10.4 mph16.7 kmh 29.95 in1014.2 mb - 0.00 in0.0 mm 0.00 in0.0 mm
05:15 AM 47.2°F8.4°C 45.3°F7.4°C 93% 10.4 mph WNW16.7 kmh WNW 11.5 mph18.5 kmh 29.95 in1014.2 mb - 0.00 in0.0 mm 0.00 in0.0 mm
05:20 AM 47.2°F8.4°C 45.3°F7.4°C 93% 9.2 mph W14.8 kmh W 11.5 mph18.5 kmh 29.95 in1014.2 mb - 0.00 in0.0 mm 0.00 in0.0 mm
05:25 AM 47.3°F8.5°C 45.4°F7.4°C 93% 6.9 mph W11.1 kmh W 11.5 mph18.5 kmh 29.95 in1014.2 mb - 0.00 in0.0 mm 0.00 in0.0 mm
05:30 AM 47.3°F8.5°C 45.4°F7.4°C 93% 8.1 mph WNW13.0 kmh WNW 10.4 mph16.7 kmh 29.95 in1014.2 mb - 0.00 in0.0 mm 0.00 in0.0 mm
05:35 AM 47.3°F8.5°C 45.4°F7.4°C 93% 9.2 mph WNW14.8 kmh WNW 11.5 mph18.5 kmh 29.95 in1014.2 mb - 0.00 in0.0 mm 0.00 in0.0 mm
05:40 AM 47.3°F8.5°C 45.4°F7.4°C 93% 10.4 mph W16.7 kmh W 15.0 mph24.1 kmh 29.95 in1014.2 mb - 0.00 in0.0 mm 0.00 in0.0 mm
05:45 AM 47.2°F8.4°C 45.3°F7.4°C 93% 9.2 mph W14.8 kmh W 11.5 mph18.5 kmh 29.95 in1014.2 mb - 0.00 in0.0 mm 0.00 in0.0 mm
05:50 AM 47.2°F8.4°C 45.3°F7.4°C 93% 8.1 mph W13.0 kmh W 9.2 mph14.8 kmh 29.95 in1014.2 mb - 0.00 in0.0 mm 0.00 in0.0 mm
05:55 AM 47.2°F8.4°C 45.2°F7.3°C 93% 10.4 mph W16.7 kmh W 11.5 mph18.5 kmh 29.94 in1013.9 mb - 0.00 in0.0 mm 0.00 in0.0 mm
06:00 AM 47.1°F8.4°C 45.2°F7.3°C 93% 8.1 mph W13.0 kmh W 10.4 mph16.7 kmh 29.94 in1013.9 mb - 0.00 in0.0 mm 0.00 in0.0 mm
06:10 AM 47.1°F8.4°C 45.2°F7.3°C 93% 9.2 mph W14.8 kmh W 10.4 mph16.7 kmh 29.94 in1013.9 mb - 0.00 in0.0 mm 0.00 in0.0 mm
06:15 AM 47.0°F8.3°C 45.1°F7.3°C 93% 12.7 mph W20.4 kmh W 12.7 mph20.4 kmh 29.94 in1013.9 mb - 0.00 in0.0 mm 0.00 in0.0 mm
06:20 AM 46.9°F8.3°C 44.9°F7.2°C 93% 13.8 mph WNW22.2 kmh WNW 17.3 mph27.8 kmh 29.94 in1013.9 mb - 0.00 in0.0 mm 0.00 in0.0 mm
06:25 AM 46.8°F8.2°C 44.9°F7.2°C 93% 12.7 mph WNW20.4 kmh WNW 15.0 mph24.1 kmh 29.94 in1013.9 mb - 0.00 in0.0 mm 0.00 in0.0 mm
06:30 AM 46.8°F8.2°C 44.9°F7.2°C 93% 12.7 mph W20.4 kmh W 17.3 mph27.8 kmh 29.94 in1013.9 mb - 0.00 in0.0 mm 0.00 in0.0 mm
06:35 AM 46.8°F8.2°C 44.9°F7.2°C 93% 9.2 mph WNW14.8 kmh WNW 12.7 mph20.4 kmh 29.94 in1013.9 mb - 0.00 in0.0 mm 0.00 in0.0 mm
06:40 AM 46.9°F8.3°C 45.0°F7.2°C 93% 10.4 mph WNW16.7 kmh WNW 15.0 mph24.1 kmh 29.94 in1013.9 mb - 0.00 in0.0 mm 0.00 in0.0 mm
06:45 AM 46.9°F8.3°C 45.0°F7.2°C 93% 8.1 mph W13.0 kmh W 10.4 mph16.7 kmh 29.94 in1013.9 mb - 0.00 in0.0 mm 0.00 in0.0 mm
06:50 AM 47.0°F8.3°C 45.1°F7.3°C 93% 9.2 mph W14.8 kmh W 11.5 mph18.5 kmh 29.94 in1013.9 mb - 0.00 in0.0 mm 0.00 in0.0 mm
06:55 AM 47.1°F8.4°C 45.2°F7.3°C 93% 8.1 mph WNW13.0 kmh WNW 12.7 mph20.4 kmh 29.94 in1013.9 mb - 0.00 in0.0 mm 0.00 in0.0 mm
07:00 AM 47.1°F8.4°C 45.1°F7.3°C 93% 9.2 mph WNW14.8 kmh WNW 10.4 mph16.7 kmh 29.95 in1014.2 mb - 0.00 in0.0 mm 0.00 in0.0 mm
07:10 AM 47.0°F8.3°C 45.1°F7.3°C 93% 11.5 mph W18.5 kmh W 13.8 mph22.2 kmh 29.94 in1013.9 mb - 0.00 in0.0 mm 0.00 in0.0 mm
07:15 AM 46.9°F8.3°C 45.0°F7.2°C 93% 10.4 mph W16.7 kmh W 10.4 mph16.7 kmh 29.94 in1013.9 mb - 0.00 in0.0 mm 0.00 in0.0 mm
07:20 AM 46.8°F8.2°C 44.9°F7.2°C 93% 13.8 mph W22.2 kmh W 18.4 mph29.6 kmh 29.94 in1013.9 mb - 0.00 in0.0 mm 0.00 in0.0 mm
07:25 AM 46.8°F8.2°C 44.9°F7.2°C 93% 12.7 mph WNW20.4 kmh WNW 17.3 mph27.8 kmh 29.94 in1013.9 mb - 0.00 in0.0 mm 0.00 in0.0 mm
07:30 AM 46.8°F8.2°C 44.9°F7.2°C 93% 11.5 mph W18.5 kmh W 16.1 mph25.9 kmh 29.94 in1013.9 mb - 0.00 in0.0 mm 0.00 in0.0 mm
07:35 AM 46.7°F8.2°C 44.8°F7.1°C 93% 8.1 mph WNW13.0 kmh WNW 11.5 mph18.5 kmh 29.94 in1013.9 mb - 0.00 in0.0 mm 0.00 in0.0 mm
07:40 AM 46.8°F8.2°C 44.9°F7.2°C 93% 10.4 mph W16.7 kmh W 15.0 mph24.1 kmh 29.94 in1013.9 mb - 0.00 in0.0 mm 0.00 in0.0 mm
07:45 AM 46.8°F8.2°C 44.9°F7.2°C 93% 8.1 mph W13.0 kmh W 11.5 mph18.5 kmh 29.93 in1013.5 mb - 0.00 in0.0 mm 0.00 in0.0 mm
07:50 AM 46.8°F8.2°C 44.9°F7.2°C 93% 12.7 mph W20.4 kmh W 17.3 mph27.8 kmh 29.93 in1013.5 mb - 0.00 in0.0 mm 0.00 in0.0 mm
07:55 AM 46.9°F8.3°C 45.0°F7.2°C 93% 8.1 mph W13.0 kmh W 10.4 mph16.7 kmh 29.93 in1013.5 mb - 0.00 in0.0 mm 0.00 in0.0 mm
08:00 AM 46.9°F8.3°C 45.0°F7.2°C 93% 10.4 mph WNW16.7 kmh WNW 12.7 mph20.4 kmh 29.94 in1013.9 mb - 0.00 in0.0 mm 0.00 in0.0 mm
08:10 AM 46.9°F8.3°C 45.0°F7.2°C 93% 11.5 mph NW18.5 kmh NW 16.1 mph25.9 kmh 29.93 in1013.5 mb - 0.00 in0.0 mm 0.00 in0.0 mm
08:15 AM 47.0°F8.3°C 45.1°F7.3°C 93% 8.1 mph WNW13.0 kmh WNW 11.5 mph18.5 kmh 29.93 in1013.5 mb - 0.00 in0.0 mm 0.00 in0.0 mm
08:20 AM 47.0°F8.3°C 45.1°F7.3°C 93% 11.5 mph W18.5 kmh W 16.1 mph25.9 kmh 29.93 in1013.5 mb - 0.00 in0.0 mm 0.00 in0.0 mm
08:25 AM 47.1°F8.4°C 45.2°F7.3°C 93% 12.7 mph W20.4 kmh W 16.1 mph25.9 kmh 29.93 in1013.5 mb - 0.00 in0.0 mm 0.00 in0.0 mm
08:30 AM 47.1°F8.4°C 45.2°F7.3°C 93% 12.7 mph WNW20.4 kmh WNW 16.1 mph25.9 kmh 29.93 in1013.5 mb - 0.00 in0.0 mm 0.00 in0.0 mm
08:35 AM 47.1°F8.4°C 45.2°F7.3°C 93% 11.5 mph WNW18.5 kmh WNW 16.1 mph25.9 kmh 29.93 in1013.5 mb - 0.00 in0.0 mm 0.00 in0.0 mm
08:40 AM 47.1°F8.4°C 45.2°F7.3°C 93% 6.9 mph W11.1 kmh W 9.2 mph14.8 kmh 29.93 in1013.5 mb - 0.00 in0.0 mm 0.00 in0.0 mm
08:45 AM 47.2°F8.4°C 45.3°F7.4°C 93% 8.1 mph W13.0 kmh W 13.8 mph22.2 kmh 29.93 in1013.5 mb - 0.00 in0.0 mm 0.00 in0.0 mm
08:50 AM 47.1°F8.4°C 45.2°F7.3°C 93% 9.2 mph W14.8 kmh W 11.5 mph18.5 kmh 29.93 in1013.5 mb - 0.00 in0.0 mm 0.00 in0.0 mm
08:55 AM 47.1°F8.4°C 44.9°F7.2°C 92% 10.4 mph W16.7 kmh W 13.8 mph22.2 kmh 29.93 in1013.5 mb - 0.00 in0.0 mm 0.00 in0.0 mm
09:00 AM 47.2°F8.4°C 45.2°F7.3°C 93% 10.4 mph W16.7 kmh W 12.7 mph20.4 kmh 29.93 in1013.5 mb - 0.00 in0.0 mm 0.00 in0.0 mm
09:10 AM 47.2°F8.4°C 45.0°F7.2°C 92% 12.7 mph W20.4 kmh W 15.0 mph24.1 kmh 29.93 in1013.5 mb - 0.00 in0.0 mm 0.00 in0.0 mm
09:15 AM 47.3°F8.5°C 45.4°F7.4°C 93% 9.2 mph W14.8 kmh W 12.7 mph20.4 kmh 29.93 in1013.5 mb - 0.00 in0.0 mm 0.00 in0.0 mm
09:20 AM 47.3°F8.5°C 45.1°F7.3°C 92% 12.7 mph WNW20.4 kmh WNW 16.1 mph25.9 kmh 29.93 in1013.5 mb - 0.00 in0.0 mm 0.00 in0.0 mm
09:25 AM 47.5°F8.6°C 45.3°F7.4°C 92% 5.8 mph W9.3 kmh W 8.1 mph13.0 kmh 29.93 in1013.5 mb - 0.00 in0.0 mm 0.00 in0.0 mm
09:30 AM 47.5°F8.6°C 45.3°F7.4°C 92% 11.5 mph W18.5 kmh W 16.1 mph25.9 kmh 29.93 in1013.5 mb - 0.00 in0.0 mm 0.00 in0.0 mm
09:35 AM 47.4°F8.6°C 44.9°F7.2°C 91% 10.4 mph W16.7 kmh W 13.8 mph22.2 kmh 29.93 in1013.5 mb - 0.00 in0.0 mm 0.00 in0.0 mm
09:40 AM 47.5°F8.6°C 45.0°F7.2°C 91% 10.4 mph W16.7 kmh W 11.5 mph18.5 kmh 29.93 in1013.5 mb - 0.00 in0.0 mm 0.00 in0.0 mm
09:45 AM 47.4°F8.6°C 44.9°F7.2°C 91% 15.0 mph W24.1 kmh W 19.6 mph31.5 kmh 29.93 in1013.5 mb - 0.00 in0.0 mm 0.00 in0.0 mm
09:50 AM 47.6°F8.7°C 45.1°F7.3°C 91% 8.1 mph WNW13.0 kmh WNW 11.5 mph18.5 kmh 29.93 in1013.5 mb - 0.00 in0.0 mm 0.00 in0.0 mm
09:55 AM 47.6°F8.7°C 45.1°F7.3°C 91% 12.7 mph W20.4 kmh W 18.4 mph29.6 kmh 29.93 in1013.5 mb - 0.00 in0.0 mm 0.00 in0.0 mm
10:00 AM 47.6°F8.7°C 44.8°F7.1°C 90% 9.2 mph W14.8 kmh W 11.5 mph18.5 kmh 29.93 in1013.5 mb - 0.00 in0.0 mm 0.00 in0.0 mm
10:10 AM 47.6°F8.7°C 44.8°F7.1°C 90% 11.5 mph W18.5 kmh W 15.0 mph24.1 kmh 29.92 in1013.2 mb - 0.00 in0.0 mm 0.00 in0.0 mm
10:15 AM 47.5°F8.6°C 44.7°F7.1°C 90% 12.7 mph W20.4 kmh W 15.0 mph24.1 kmh 29.93 in1013.5 mb - 0.00 in0.0 mm 0.00 in0.0 mm
10:20 AM 47.5°F8.6°C 45.0°F7.2°C 91% 12.7 mph WSW20.4 kmh WSW 17.3 mph27.8 kmh 29.92 in1013.2 mb - 0.00 in0.0 mm 0.00 in0.0 mm
10:25 AM 47.5°F8.6°C 44.7°F7.1°C 90% 9.2 mph W14.8 kmh W 11.5 mph18.5 kmh 29.93 in1013.5 mb - 0.00 in0.0 mm 0.00 in0.0 mm
10:30 AM 47.6°F8.7°C 44.8°F7.1°C 90% 12.7 mph W20.4 kmh W 16.1 mph25.9 kmh 29.93 in1013.5 mb - 0.00 in0.0 mm 0.00 in0.0 mm
10:35 AM 47.7°F8.7°C 44.9°F7.2°C 90% 11.5 mph WSW18.5 kmh WSW 15.0 mph24.1 kmh 29.92 in1013.2 mb - 0.00 in0.0 mm 0.00 in0.0 mm
10:40 AM 47.6°F8.7°C 44.9°F7.2°C 90% 12.7 mph W20.4 kmh W 17.3 mph27.8 kmh 29.92 in1013.2 mb - 0.00 in0.0 mm 0.00 in0.0 mm
10:45 AM 47.8°F8.8°C 45.0°F7.2°C 90% 11.5 mph W18.5 kmh W 19.6 mph31.5 kmh 29.92 in1013.2 mb - 0.00 in0.0 mm 0.00 in0.0 mm
10:50 AM 47.8°F8.8°C 45.0°F7.2°C 90% 12.7 mph W20.4 kmh W 19.6 mph31.5 kmh 29.92 in1013.2 mb - 0.00 in0.0 mm 0.00 in0.0 mm
10:55 AM 47.9°F8.8°C 45.1°F7.3°C 90% 9.2 mph W14.8 kmh W 13.8 mph22.2 kmh 29.92 in1013.2 mb - 0.00 in0.0 mm 0.00 in0.0 mm
11:00 AM 47.9°F8.8°C 45.1°F7.3°C 90% 11.5 mph W18.5 kmh W 19.6 mph31.5 kmh 29.92 in1013.2 mb - 0.00 in0.0 mm 0.00 in0.0 mm
11:10 AM 47.9°F8.8°C 45.1°F7.3°C 90% 15.0 mph W24.1 kmh W 19.6 mph31.5 kmh 29.92 in1013.2 mb - 0.00 in0.0 mm 0.00 in0.0 mm
11:15 AM 47.9°F8.8°C 45.1°F7.3°C 90% 10.4 mph W16.7 kmh W 19.6 mph31.5 kmh 29.92 in1013.2 mb - 0.00 in0.0 mm 0.00 in0.0 mm
11:20 AM 48.1°F8.9°C 45.3°F7.4°C 90% 9.2 mph W14.8 kmh W 16.1 mph25.9 kmh 29.92 in1013.2 mb - 0.00 in0.0 mm 0.00 in0.0 mm
11:25 AM 47.9°F8.8°C 45.2°F7.3°C 90% 12.7 mph W20.4 kmh W 17.3 mph27.8 kmh 29.91 in1012.9 mb - 0.00 in0.0 mm 0.00 in0.0 mm
11:30 AM 47.9°F8.8°C 45.1°F7.3°C 90% 12.7 mph W20.4 kmh W 19.6 mph31.5 kmh 29.91 in1012.9 mb - 0.00 in0.0 mm 0.00 in0.0 mm
11:35 AM 47.9°F8.8°C 45.1°F7.3°C 90% 15.0 mph W24.1 kmh W 19.6 mph31.5 kmh 29.91 in1012.9 mb - 0.00 in0.0 mm 0.00 in0.0 mm
11:40 AM 48.1°F8.9°C 45.3°F7.4°C 90% 12.7 mph W20.4 kmh W 17.3 mph27.8 kmh 29.91 in1012.9 mb - 0.00 in0.0 mm 0.00 in0.0 mm
11:45 AM 48.2°F9.0°C 45.1°F7.3°C 89% 16.1 mph W25.9 kmh W 19.6 mph31.5 kmh 29.91 in1012.9 mb - 0.00 in0.0 mm 0.00 in0.0 mm
11:50 AM 48.4°F9.1°C 45.3°F7.4°C 89% 16.1 mph W25.9 kmh W 17.3 mph27.8 kmh 29.91 in1012.9 mb - 0.00 in0.0 mm 0.00 in0.0 mm
11:55 AM 48.3°F9.1°C 45.2°F7.3°C 89% 13.8 mph W22.2 kmh W 16.1 mph25.9 kmh 29.91 in1012.9 mb - 0.00 in0.0 mm 0.00 in0.0 mm
12:00 PM 48.1°F8.9°C 45.0°F7.2°C 89% 16.1 mph W25.9 kmh W 19.6 mph31.5 kmh 29.91 in1012.9 mb - 0.00 in0.0 mm 0.00 in0.0 mm
12:10 PM 48.2°F9.0°C 45.4°F7.4°C 90% 12.7 mph W20.4 kmh W 26.5 mph42.6 kmh 29.91 in1012.9 mb - 0.00 in0.0 mm 0.00 in0.0 mm
12:15 PM 48.2°F9.0°C 45.4°F7.4°C 90% 11.5 mph W18.5 kmh W 19.6 mph31.5 kmh 29.91 in1012.9 mb - 0.00 in0.0 mm 0.00 in0.0 mm
12:20 PM 48.1°F8.9°C 45.3°F7.4°C 90% 13.8 mph WNW22.2 kmh WNW 18.4 mph29.6 kmh 29.91 in1012.9 mb - 0.00 in0.0 mm 0.00 in0.0 mm
12:25 PM 48.2°F9.0°C 45.1°F7.3°C 89% 13.8 mph W22.2 kmh W 17.3 mph27.8 kmh 29.90 in1012.5 mb - 0.00 in0.0 mm 0.00 in0.0 mm
12:30 PM 48.3°F9.1°C 45.5°F7.5°C 90% 12.7 mph W20.4 kmh W 19.6 mph31.5 kmh 29.90 in1012.5 mb - 0.00 in0.0 mm 0.00 in0.0 mm
12:35 PM 48.4°F9.1°C 45.3°F7.4°C 89% 17.3 mph WNW27.8 kmh WNW 20.7 mph33.3 kmh 29.90 in1012.5 mb - 0.00 in0.0 mm 0.00 in0.0 mm
12:40 PM 48.3°F9.1°C 45.2°F7.3°C 89% 13.8 mph WNW22.2 kmh WNW 15.0 mph24.1 kmh 29.90 in1012.5 mb - 0.00 in0.0 mm 0.00 in0.0 mm
12:45 PM 48.2°F9.0°C 45.2°F7.3°C 89% 13.8 mph W22.2 kmh W 15.0 mph24.1 kmh 29.90 in1012.5 mb - 0.00 in0.0 mm 0.00 in0.0 mm
12:50 PM 48.3°F9.1°C 45.2°F7.3°C 89% 17.3 mph W27.8 kmh W 20.7 mph33.3 kmh 29.90 in1012.5 mb - 0.00 in0.0 mm 0.00 in0.0 mm
12:55 PM 48.4°F9.1°C 45.3°F7.4°C 89% 16.1 mph W25.9 kmh W 19.6 mph31.5 kmh 29.90 in1012.5 mb - 0.00 in0.0 mm 0.00 in0.0 mm
01:00 PM 48.5°F9.2°C 45.4°F7.4°C 89% 11.5 mph W18.5 kmh W 23.0 mph37.0 kmh 29.90 in1012.5 mb - 0.00 in0.0 mm 0.00 in0.0 mm
01:10 PM 48.4°F9.1°C 45.3°F7.4°C 89% 16.1 mph WNW25.9 kmh WNW 23.0 mph37.0 kmh 29.90 in1012.5 mb - 0.00 in0.0 mm 0.00 in0.0 mm
01:15 PM 48.2°F9.0°C 45.1°F7.3°C 89% 15.0 mph W24.1 kmh W 19.6 mph31.5 kmh 29.90 in1012.5 mb - 0.00 in0.0 mm 0.00 in0.0 mm
01:20 PM 48.2°F9.0°C 45.1°F7.3°C 89% 12.7 mph WNW20.4 kmh WNW 19.6 mph31.5 kmh 29.90 in1012.5 mb - 0.00 in0.0 mm 0.00 in0.0 mm
01:25 PM 48.2°F9.0°C 45.4°F7.4°C 90% 9.2 mph W14.8 kmh W 15.0 mph24.1 kmh 29.90 in1012.5 mb - 0.00 in0.0 mm 0.00 in0.0 mm
01:30 PM 48.1°F8.9°C 45.1°F7.3°C 89% 13.8 mph W22.2 kmh W 19.6 mph31.5 kmh 29.89 in1012.2 mb - 0.00 in0.0 mm 0.00 in0.0 mm
01:35 PM 48.1°F8.9°C 45.3°F7.4°C 90% 10.4 mph W16.7 kmh W 12.7 mph20.4 kmh 29.89 in1012.2 mb - 0.00 in0.0 mm 0.00 in0.0 mm
01:40 PM 48.2°F9.0°C 45.4°F7.4°C 90% 15.0 mph W24.1 kmh W 19.6 mph31.5 kmh 29.89 in1012.2 mb - 0.00 in0.0 mm 0.00 in0.0 mm
01:45 PM 48.1°F8.9°C 45.0°F7.2°C 89% 11.5 mph WNW18.5 kmh WNW 17.3 mph27.8 kmh 29.89 in1012.2 mb - 0.00 in0.0 mm 0.00 in0.0 mm
01:50 PM 48.1°F8.9°C 45.1°F7.3°C 89% 12.7 mph WNW20.4 kmh WNW 19.6 mph31.5 kmh 29.89 in1012.2 mb - 0.00 in0.0 mm 0.00 in0.0 mm
01:55 PM 48.1°F8.9°C 45.0°F7.2°C 89% 12.7 mph WNW20.4 kmh WNW 16.1 mph25.9 kmh 29.89 in1012.2 mb - 0.00 in0.0 mm 0.00 in0.0 mm
02:00 PM 48.1°F8.9°C 45.3°F7.4°C 90% 9.2 mph W14.8 kmh W 11.5 mph18.5 kmh 29.89 in1012.2 mb - 0.00 in0.0 mm 0.00 in0.0 mm
02:10 PM 47.9°F8.8°C 44.8°F7.1°C 89% 13.8 mph W22.2 kmh W 17.3 mph27.8 kmh 29.89 in1012.2 mb - 0.00 in0.0 mm 0.00 in0.0 mm
02:15 PM 47.9°F8.8°C 44.8°F7.1°C 89% 16.1 mph W25.9 kmh W 19.6 mph31.5 kmh 29.89 in1012.2 mb - 0.00 in0.0 mm 0.00 in0.0 mm
02:20 PM 48.0°F8.9°C 44.6°F7.0°C 88% 15.0 mph W24.1 kmh W 19.6 mph31.5 kmh 29.89 in1012.2 mb - 0.00 in0.0 mm 0.00 in0.0 mm
02:25 PM 48.1°F8.9°C 44.7°F7.1°C 88% 12.7 mph WNW20.4 kmh WNW 21.9 mph35.2 kmh 29.89 in1012.2 mb - 0.00 in0.0 mm 0.00 in0.0 mm
02:30 PM 48.1°F8.9°C 44.7°F7.1°C 88% 13.8 mph W22.2 kmh W 24.2 mph38.9 kmh 29.88 in1011.9 mb - 0.00 in0.0 mm 0.00 in0.0 mm
02:35 PM 48.1°F8.9°C 44.7°F7.1°C 88% 15.0 mph W24.1 kmh W 19.6 mph31.5 kmh 29.88 in1011.9 mb - 0.00 in0.0 mm 0.00 in0.0 mm
02:40 PM 48.2°F9.0°C 44.8°F7.1°C 88% 10.4 mph W16.7 kmh W 15.0 mph24.1 kmh 29.88 in1011.9 mb - 0.00 in0.0 mm 0.00 in0.0 mm
02:45 PM 48.2°F9.0°C 44.8°F7.1°C 88% 12.7 mph W20.4 kmh W 19.6 mph31.5 kmh 29.88 in1011.9 mb - 0.00 in0.0 mm 0.00 in0.0 mm
02:50 PM 48.1°F8.9°C 44.7°F7.1°C 88% 15.0 mph W24.1 kmh W 18.4 mph29.6 kmh 29.88 in1011.9 mb - 0.00 in0.0 mm 0.00 in0.0 mm
02:55 PM 48.1°F8.9°C 44.4°F6.9°C 87% 10.4 mph W16.7 kmh W 15.0 mph24.1 kmh 29.88 in1011.9 mb - 0.00 in0.0 mm 0.00 in0.0 mm
03:00 PM 48.1°F8.9°C 44.4°F6.9°C 87% 12.7 mph W20.4 kmh W 15.0 mph24.1 kmh 29.88 in1011.9 mb - 0.00 in0.0 mm 0.00 in0.0 mm
03:10 PM 47.9°F8.8°C 44.3°F6.8°C 87% 15.0 mph W24.1 kmh W 23.0 mph37.0 kmh 29.87 in1011.5 mb - 0.00 in0.0 mm 0.00 in0.0 mm
03:15 PM 47.9°F8.8°C 44.2°F6.8°C 87% 13.8 mph W22.2 kmh W 23.0 mph37.0 kmh 29.87 in1011.5 mb - 0.00 in0.0 mm 0.00 in0.0 mm
03:20 PM 48.0°F8.9°C 44.3°F6.8°C 87% 12.7 mph W20.4 kmh W 18.4 mph29.6 kmh 29.87 in1011.5 mb - 0.00 in0.0 mm 0.00 in0.0 mm
03:25 PM 48.1°F8.9°C 44.4°F6.9°C 87% 15.0 mph W24.1 kmh W 19.6 mph31.5 kmh 29.87 in1011.5 mb - 0.00 in0.0 mm 0.00 in0.0 mm
03:30 PM 48.0°F8.9°C 44.0°F6.7°C 86% 15.0 mph W24.1 kmh W 17.3 mph27.8 kmh 29.87 in1011.5 mb - 0.00 in0.0 mm 0.00 in0.0 mm
03:35 PM 48.0°F8.9°C 44.0°F6.7°C 86% 17.3 mph W27.8 kmh W 25.3 mph40.7 kmh 29.87 in1011.5 mb - 0.00 in0.0 mm 0.00 in0.0 mm
03:40 PM 47.9°F8.8°C 44.2°F6.8°C 87% 13.8 mph W22.2 kmh W 19.6 mph31.5 kmh 29.87 in1011.5 mb - 0.00 in0.0 mm 0.00 in0.0 mm
03:45 PM 47.9°F8.8°C 44.2°F6.8°C 87% 12.7 mph W20.4 kmh W 18.4 mph29.6 kmh 29.87 in1011.5 mb - 0.00 in0.0 mm 0.00 in0.0 mm
03:50 PM 47.9°F8.8°C 44.2°F6.8°C 87% 12.7 mph W20.4 kmh W 19.6 mph31.5 kmh 29.87 in1011.5 mb - 0.00 in0.0 mm 0.00 in0.0 mm
03:55 PM 47.9°F8.8°C 44.0°F6.7°C 86% 11.5 mph W18.5 kmh W 16.1 mph25.9 kmh 29.87 in1011.5 mb - 0.00 in0.0 mm 0.00 in0.0 mm
04:00 PM 47.9°F8.8°C 44.2°F6.8°C 87% 12.7 mph W20.4 kmh W 16.1 mph25.9 kmh 29.87 in1011.5 mb - 0.00 in0.0 mm 0.00 in0.0 mm
04:10 PM 47.7°F8.7°C 44.0°F6.7°C 87% 15.0 mph W24.1 kmh W 17.3 mph27.8 kmh 29.86 in1011.2 mb - 0.00 in0.0 mm 0.00 in0.0 mm
04:15 PM 47.7°F8.7°C 44.0°F6.7°C 87% 12.7 mph W20.4 kmh W 19.6 mph31.5 kmh 29.86 in1011.2 mb - 0.00 in0.0 mm 0.00 in0.0 mm
04:20 PM 47.6°F8.7°C 43.9°F6.6°C 87% 10.4 mph W16.7 kmh W 19.6 mph31.5 kmh 29.86 in1011.2 mb - 0.00 in0.0 mm 0.00 in0.0 mm
04:25 PM 47.5°F8.6°C 43.8°F6.6°C 87% 13.8 mph W22.2 kmh W 19.6 mph31.5 kmh 29.86 in1011.2 mb - 0.00 in0.0 mm 0.00 in0.0 mm
04:30 PM 47.4°F8.6°C 43.7°F6.5°C 87% 12.7 mph W20.4 kmh W 18.4 mph29.6 kmh 29.86 in1011.2 mb - 0.00 in0.0 mm 0.00 in0.0 mm
04:35 PM 47.5°F8.6°C 43.8°F6.6°C 87% 13.8 mph W22.2 kmh W 19.6 mph31.5 kmh 29.86 in1011.2 mb - 0.00 in0.0 mm 0.00 in0.0 mm
04:40 PM 47.5°F8.6°C 43.8°F6.6°C 87% 11.5 mph W18.5 kmh W 16.1 mph25.9 kmh 29.85 in1010.8 mb - 0.00 in0.0 mm 0.00 in0.0 mm
04:45 PM 47.6°F8.7°C 43.9°F6.6°C 87% 13.8 mph W22.2 kmh W 19.6 mph31.5 kmh 29.85 in1010.8 mb - 0.00 in0.0 mm 0.00 in0.0 mm
04:50 PM 47.7°F8.7°C 44.0°F6.7°C 87% 11.5 mph W18.5 kmh W 18.4 mph29.6 kmh 29.85 in1010.8 mb - 0.00 in0.0 mm 0.00 in0.0 mm
04:55 PM 47.6°F8.7°C 43.9°F6.6°C 87% 12.7 mph W20.4 kmh W 19.6 mph31.5 kmh 29.85 in1010.8 mb - 0.00 in0.0 mm 0.00 in0.0 mm
05:00 PM 47.5°F8.6°C 43.9°F6.6°C 87% 12.7 mph WNW20.4 kmh WNW 17.3 mph27.8 kmh 29.85 in1010.8 mb - 0.00 in0.0 mm 0.00 in0.0 mm
05:10 PM 47.3°F8.5°C 43.6°F6.4°C 87% 15.0 mph W24.1 kmh W 18.4 mph29.6 kmh 29.85 in1010.8 mb - 0.00 in0.0 mm 0.00 in0.0 mm
05:15 PM 47.2°F8.4°C 43.5°F6.4°C 87% 15.0 mph W24.1 kmh W 19.6 mph31.5 kmh 29.85 in1010.8 mb - 0.00 in0.0 mm 0.00 in0.0 mm
05:20 PM 47.1°F8.4°C 43.4°F6.3°C 87% 10.4 mph W16.7 kmh W 16.1 mph25.9 kmh 29.85 in1010.8 mb - 0.00 in0.0 mm 0.00 in0.0 mm
05:25 PM 47.1°F8.4°C 43.4°F6.3°C 87% 13.8 mph W22.2 kmh W 19.6 mph31.5 kmh 29.85 in1010.8 mb - 0.00 in0.0 mm 0.00 in0.0 mm
05:30 PM 47.1°F8.4°C 43.4°F6.3°C 87% 11.5 mph WSW18.5 kmh WSW 21.9 mph35.2 kmh 29.84 in1010.5 mb - 0.00 in0.0 mm 0.00 in0.0 mm
05:35 PM 47.0°F8.3°C 43.4°F6.3°C 87% 16.1 mph WSW25.9 kmh WSW 21.9 mph35.2 kmh 29.84 in1010.5 mb - 0.00 in0.0 mm 0.00 in0.0 mm
05:40 PM 47.1°F8.4°C 43.4°F6.3°C 87% 12.7 mph W20.4 kmh W 18.4 mph29.6 kmh 29.84 in1010.5 mb - 0.00 in0.0 mm 0.00 in0.0 mm
05:45 PM 47.1°F8.4°C 43.4°F6.3°C 87% 15.0 mph W24.1 kmh W 23.0 mph37.0 kmh 29.84 in1010.5 mb - 0.00 in0.0 mm 0.00 in0.0 mm
05:50 PM 47.2°F8.4°C 43.5°F6.4°C 87% 11.5 mph W18.5 kmh W 12.7 mph20.4 kmh 29.84 in1010.5 mb - 0.00 in0.0 mm 0.00 in0.0 mm
05:55 PM 47.2°F8.4°C 43.5°F6.4°C 87% 11.5 mph W18.5 kmh W 15.0 mph24.1 kmh 29.84 in1010.5 mb - 0.00 in0.0 mm 0.00 in0.0 mm
06:00 PM 47.1°F8.4°C 43.4°F6.3°C 87% 10.4 mph W16.7 kmh W 15.0 mph24.1 kmh 29.84 in1010.5 mb - 0.00 in0.0 mm 0.00 in0.0 mm
06:10 PM 47.2°F8.4°C 43.5°F6.4°C 87% 11.5 mph W18.5 kmh W 16.1 mph25.9 kmh 29.83 in1010.2 mb - 0.00 in0.0 mm 0.00 in0.0 mm
06:15 PM 47.2°F8.4°C 43.6°F6.4°C 87% 15.0 mph W24.1 kmh W 19.6 mph31.5 kmh 29.83 in1010.2 mb - 0.00 in0.0 mm 0.00 in0.0 mm
06:20 PM 47.2°F8.4°C 43.5°F6.4°C 87% 12.7 mph W20.4 kmh W 21.9 mph35.2 kmh 29.83 in1010.2 mb - 0.00 in0.0 mm 0.00 in0.0 mm
06:25 PM 47.1°F8.4°C 43.5°F6.4°C 87% 15.0 mph WSW24.1 kmh WSW 19.6 mph31.5 kmh 29.83 in1010.2 mb - 0.00 in0.0 mm 0.00 in0.0 mm
06:30 PM 47.1°F8.4°C 43.4°F6.3°C 87% 11.5 mph WSW18.5 kmh WSW 15.0 mph24.1 kmh 29.83 in1010.2 mb - 0.00 in0.0 mm 0.00 in0.0 mm
06:35 PM 47.0°F8.3°C 43.4°F6.3°C 87% 10.4 mph W16.7 kmh W 13.8 mph22.2 kmh 29.83 in1010.2 mb - 0.00 in0.0 mm 0.00 in0.0 mm
06:40 PM 47.0°F8.3°C 43.3°F6.3°C 87% 12.7 mph W20.4 kmh W 16.1 mph25.9 kmh 29.83 in1010.2 mb - 0.00 in0.0 mm 0.00 in0.0 mm
06:45 PM 47.0°F8.3°C 43.4°F6.3°C 87% 12.7 mph W20.4 kmh W 18.4 mph29.6 kmh 29.83 in1010.2 mb - 0.00 in0.0 mm 0.00 in0.0 mm
06:50 PM 47.0°F8.3°C 43.4°F6.3°C 87% 12.7 mph W20.4 kmh W 16.1 mph25.9 kmh 29.83 in1010.2 mb - 0.00 in0.0 mm 0.00 in0.0 mm
06:55 PM 47.0°F8.3°C 43.3°F6.3°C 87% 15.0 mph W24.1 kmh W 15.0 mph24.1 kmh 29.83 in1010.2 mb - 0.00 in0.0 mm 0.00 in0.0 mm
07:00 PM 46.9°F8.3°C 43.2°F6.2°C 87% 16.1 mph W25.9 kmh W 20.7 mph33.3 kmh 29.83 in1010.2 mb - 0.00 in0.0 mm 0.00 in0.0 mm
07:10 PM 46.9°F8.3°C 43.2°F6.2°C 87% 12.7 mph WSW20.4 kmh WSW 16.1 mph25.9 kmh 29.82 in1009.8 mb - 0.00 in0.0 mm 0.00 in0.0 mm
07:15 PM 46.9°F8.3°C 43.5°F6.4°C 88% 12.7 mph W20.4 kmh W 18.4 mph29.6 kmh 29.82 in1009.8 mb - 0.00 in0.0 mm 0.00 in0.0 mm
07:20 PM 46.9°F8.3°C 43.5°F6.4°C 88% 10.4 mph W16.7 kmh W 11.5 mph18.5 kmh 29.83 in1010.2 mb - 0.00 in0.0 mm 0.00 in0.0 mm
07:25 PM 46.8°F8.2°C 43.5°F6.4°C 88% 10.4 mph WSW16.7 kmh WSW 11.5 mph18.5 kmh 29.82 in1009.8 mb - 0.00 in0.0 mm 0.00 in0.0 mm
07:30 PM 46.8°F8.2°C 43.4°F6.3°C 88% 12.7 mph WSW20.4 kmh WSW 15.0 mph24.1 kmh 29.83 in1010.2 mb - 0.00 in0.0 mm 0.00 in0.0 mm
07:35 PM 46.8°F8.2°C 43.4°F6.3°C 88% 11.5 mph WSW18.5 kmh WSW 18.4 mph29.6 kmh 29.82 in1009.8 mb - 0.00 in0.0 mm 0.00 in0.0 mm
07:40 PM 46.7°F8.2°C 43.6°F6.4°C 89% 10.4 mph W16.7 kmh W 16.1 mph25.9 kmh 29.82 in1009.8 mb - 0.00 in0.0 mm 0.00 in0.0 mm
07:45 PM 46.5°F8.1°C 43.4°F6.3°C 89% 12.7 mph W20.4 kmh W 17.3 mph27.8 kmh 29.82 in1009.8 mb - 0.00 in0.0 mm 0.00 in0.0 mm
07:50 PM 46.4°F8.0°C 43.3°F6.3°C 89% 11.5 mph W18.5 kmh W 16.1 mph25.9 kmh 29.82 in1009.8 mb - 0.00 in0.0 mm 0.00 in0.0 mm
07:55 PM 46.4°F8.0°C 43.3°F6.3°C 89% 11.5 mph W18.5 kmh W 17.3 mph27.8 kmh 29.82 in1009.8 mb - 0.00 in0.0 mm 0.00 in0.0 mm
08:00 PM 46.4°F8.0°C 43.3°F6.3°C 89% 12.7 mph W20.4 kmh W 15.0 mph24.1 kmh 29.82 in1009.8 mb - 0.00 in0.0 mm 0.00 in0.0 mm
08:10 PM 46.5°F8.1°C 43.4°F6.3°C 89% 9.2 mph W14.8 kmh W 15.0 mph24.1 kmh 29.82 in1009.8 mb - 0.00 in0.0 mm 0.00 in0.0 mm
08:15 PM 46.5°F8.1°C 43.4°F6.3°C 89% 10.4 mph W16.7 kmh W 18.4 mph29.6 kmh 29.82 in1009.8 mb - 0.00 in0.0 mm 0.00 in0.0 mm
08:20 PM 46.5°F8.1°C 43.1°F6.2°C 88% 15.0 mph W24.1 kmh W 18.4 mph29.6 kmh 29.82 in1009.8 mb - 0.00 in0.0 mm 0.00 in0.0 mm
08:25 PM 46.5°F8.1°C 43.2°F6.2°C 88% 10.4 mph W16.7 kmh W 18.4 mph29.6 kmh 29.82 in1009.8 mb - 0.00 in0.0 mm 0.00 in0.0 mm
08:30 PM 46.6°F8.1°C 43.0°F6.1°C 87% 13.8 mph W22.2 kmh W 18.4 mph29.6 kmh 29.81 in1009.5 mb - 0.00 in0.0 mm 0.00 in0.0 mm
08:35 PM 46.7°F8.2°C 43.1°F6.2°C 87% 12.7 mph W20.4 kmh W 13.8 mph22.2 kmh 29.81 in1009.5 mb - 0.00 in0.0 mm 0.00 in0.0 mm
08:40 PM 46.8°F8.2°C 42.8°F6.0°C 86% 12.7 mph W20.4 kmh W 17.3 mph27.8 kmh 29.81 in1009.5 mb - 0.00 in0.0 mm 0.00 in0.0 mm
08:45 PM 46.8°F8.2°C 42.8°F6.0°C 86% 16.1 mph W25.9 kmh W 20.7 mph33.3 kmh 29.81 in1009.5 mb - 0.00 in0.0 mm 0.00 in0.0 mm
08:50 PM 46.8°F8.2°C 42.8°F6.0°C 86% 15.0 mph W24.1 kmh W 23.0 mph37.0 kmh 29.81 in1009.5 mb - 0.00 in0.0 mm 0.00 in0.0 mm
08:55 PM 46.8°F8.2°C 42.6°F5.9°C 85% 11.5 mph W18.5 kmh W 18.4 mph29.6 kmh 29.80 in1009.1 mb - 0.00 in0.0 mm 0.00 in0.0 mm
09:00 PM 46.9°F8.3°C 42.6°F5.9°C 85% 11.5 mph W18.5 kmh W 19.6 mph31.5 kmh 29.80 in1009.1 mb - 0.00 in0.0 mm 0.00 in0.0 mm
09:10 PM 46.9°F8.3°C 42.4°F5.8°C 84% 10.4 mph W16.7 kmh W 12.7 mph20.4 kmh 29.80 in1009.1 mb - 0.00 in0.0 mm 0.00 in0.0 mm
09:15 PM 47.0°F8.3°C 42.4°F5.8°C 84% 13.8 mph W22.2 kmh W 16.1 mph25.9 kmh 29.80 in1009.1 mb - 0.00 in0.0 mm 0.00 in0.0 mm
09:20 PM 47.0°F8.3°C 42.7°F5.9°C 85% 12.7 mph W20.4 kmh W 16.1 mph25.9 kmh 29.80 in1009.1 mb - 0.00 in0.0 mm 0.00 in0.0 mm
09:25 PM 47.0°F8.3°C 42.7°F5.9°C 85% 11.5 mph W18.5 kmh W 17.3 mph27.8 kmh 29.80 in1009.1 mb - 0.00 in0.0 mm 0.00 in0.0 mm
09:30 PM 46.9°F8.3°C 42.6°F5.9°C 85% 10.4 mph W16.7 kmh W 20.7 mph33.3 kmh 29.79 in1008.8 mb - 0.00 in0.0 mm 0.00 in0.0 mm
09:35 PM 47.0°F8.3°C 42.4°F5.8°C 84% 12.7 mph W20.4 kmh W 18.4 mph29.6 kmh 29.79 in1008.8 mb - 0.00 in0.0 mm 0.00 in0.0 mm
09:40 PM 47.0°F8.3°C 42.4°F5.8°C 84% 12.7 mph W20.4 kmh W 20.7 mph33.3 kmh 29.79 in1008.8 mb - 0.00 in0.0 mm 0.00 in0.0 mm
09:45 PM 47.0°F8.3°C 42.4°F5.8°C 84% 12.7 mph W20.4 kmh W 16.1 mph25.9 kmh 29.79 in1008.8 mb - 0.00 in0.0 mm 0.00 in0.0 mm
09:50 PM 46.9°F8.3°C 42.6°F5.9°C 85% 11.5 mph W18.5 kmh W 15.0 mph24.1 kmh 29.78 in1008.5 mb - 0.00 in0.0 mm 0.00 in0.0 mm
09:55 PM 46.9°F8.3°C 42.3°F5.7°C 84% 18.4 mph W29.6 kmh W 24.2 mph38.9 kmh 29.78 in1008.5 mb - 0.00 in0.0 mm 0.00 in0.0 mm
10:00 PM 46.8°F8.2°C 41.9°F5.5°C 83% 16.1 mph WNW25.9 kmh WNW 21.9 mph35.2 kmh 29.78 in1008.5 mb - 0.00 in0.0 mm 0.00 in0.0 mm
10:10 PM 46.8°F8.2°C 41.6°F5.3°C 82% 13.8 mph W22.2 kmh W 17.3 mph27.8 kmh 29.78 in1008.5 mb - 0.00 in0.0 mm 0.00 in0.0 mm
10:15 PM 46.8°F8.2°C 41.9°F5.5°C 83% 12.7 mph W20.4 kmh W 13.8 mph22.2 kmh 29.77 in1008.1 mb - 0.00 in0.0 mm 0.00 in0.0 mm
10:20 PM 46.9°F8.3°C 42.0°F5.6°C 83% 13.8 mph W22.2 kmh W 13.8 mph22.2 kmh 29.78 in1008.5 mb - 0.00 in0.0 mm 0.00 in0.0 mm
10:25 PM 46.8°F8.2°C 42.2°F5.7°C 84% 11.5 mph W18.5 kmh W 16.1 mph25.9 kmh 29.78 in1008.5 mb - 0.00 in0.0 mm 0.00 in0.0 mm
10:30 PM 46.8°F8.2°C 42.2°F5.7°C 84% 11.5 mph W18.5 kmh W 19.6 mph31.5 kmh 29.77 in1008.1 mb - 0.00 in0.0 mm 0.00 in0.0 mm
10:35 PM 46.8°F8.2°C 42.2°F5.7°C 84% 12.7 mph W20.4 kmh W 17.3 mph27.8 kmh 29.77 in1008.1 mb - 0.00 in0.0 mm 0.00 in0.0 mm
10:40 PM 46.8°F8.2°C 41.9°F5.5°C 83% 10.4 mph W16.7 kmh W 12.7 mph20.4 kmh 29.77 in1008.1 mb - 0.00 in0.0 mm 0.00 in0.0 mm
10:45 PM 46.8°F8.2°C 41.9°F5.5°C 83% 12.7 mph W20.4 kmh W 15.0 mph24.1 kmh 29.77 in1008.1 mb - 0.00 in0.0 mm 0.00 in0.0 mm
10:50 PM 46.8°F8.2°C 41.6°F5.3°C 82% 15.0 mph W24.1 kmh W 16.1 mph25.9 kmh 29.77 in1008.1 mb - 0.00 in0.0 mm 0.00 in0.0 mm
10:55 PM 46.8°F8.2°C 41.9°F5.5°C 83% 11.5 mph W18.5 kmh W 17.3 mph27.8 kmh 29.76 in1007.8 mb - 0.00 in0.0 mm 0.00 in0.0 mm
11:00 PM 46.8°F8.2°C 41.9°F5.5°C 83% 9.2 mph W14.8 kmh W 18.4 mph29.6 kmh 29.76 in1007.8 mb - 0.00 in0.0 mm 0.00 in0.0 mm
11:10 PM 46.8°F8.2°C 41.9°F5.5°C 83% 10.4 mph W16.7 kmh W 13.8 mph22.2 kmh 29.76 in1007.8 mb - 0.00 in0.0 mm 0.00 in0.0 mm
11:15 PM 46.8°F8.2°C 42.2°F5.7°C 84% 10.4 mph W16.7 kmh W 12.7 mph20.4 kmh 29.76 in1007.8 mb - 0.00 in0.0 mm 0.00 in0.0 mm
11:20 PM 46.7°F8.2°C 42.1°F5.6°C 84% 11.5 mph W18.5 kmh W 13.8 mph22.2 kmh 29.76 in1007.8 mb - 0.00 in0.0 mm 0.00 in0.0 mm
11:25 PM 46.8°F8.2°C 41.9°F5.5°C 83% 12.7 mph W20.4 kmh W 15.0 mph24.1 kmh 29.75 in1007.5 mb - 0.00 in0.0 mm 0.00 in0.0 mm
11:30 PM 46.9°F8.3°C 42.0°F5.6°C 83% 11.5 mph W18.5 kmh W 18.4 mph29.6 kmh 29.75 in1007.5 mb - 0.00 in0.0 mm 0.00 in0.0 mm
11:35 PM 47.0°F8.3°C 41.8°F5.4°C 82% 12.7 mph W20.4 kmh W 19.6 mph31.5 kmh 29.75 in1007.5 mb - 0.00 in0.0 mm 0.00 in0.0 mm
11:40 PM 47.0°F8.3°C 41.8°F5.4°C 82% 10.4 mph W16.7 kmh W 18.4 mph29.6 kmh 29.75 in1007.5 mb - 0.00 in0.0 mm 0.00 in0.0 mm
11:45 PM 47.0°F8.3°C 41.8°F5.4°C 82% 13.8 mph W22.2 kmh W 20.7 mph33.3 kmh 29.75 in1007.5 mb - 0.00 in0.0 mm 0.00 in0.0 mm
11:50 PM 47.2°F8.4°C 42.0°F5.6°C 82% 11.5 mph W18.5 kmh W 15.0 mph24.1 kmh 29.75 in1007.5 mb - 0.00 in0.0 mm 0.00 in0.0 mm
11:55 PM 47.3°F8.5°C 42.1°F5.6°C 82% 11.5 mph W18.5 kmh W 18.4 mph29.6 kmh 29.75 in1007.5 mb - 0.00 in0.0 mm 0.00 in0.0 mm